createdAt,value
2023-03-13T00:01:54.726Z,4.60
2023-03-13T00:04:27.899Z,4.70
2023-03-13T00:09:38.365Z,4.70
2023-03-13T00:12:08.811Z,4.70
2023-03-13T00:14:39.239Z,4.70
2023-03-13T00:17:08.265Z,4.60
2023-03-13T00:19:36.743Z,4.60
2023-03-13T00:22:09.184Z,4.60
2023-03-13T00:24:36.041Z,4.60
2023-03-13T00:27:05.161Z,4.80
2023-03-13T00:29:34.837Z,4.80
2023-03-13T00:32:04.070Z,4.60
2023-03-13T00:34:32.769Z,4.60
2023-03-13T00:36:59.599Z,4.70
2023-03-13T00:39:28.251Z,4.70
2023-03-13T00:41:56.148Z,4.70
2023-03-13T00:44:25.436Z,4.70
2023-03-13T00:46:56.264Z,4.80
2023-03-13T00:49:23.712Z,4.90
2023-03-13T00:54:34.945Z,5.10
2023-03-13T00:57:01.815Z,5.00
2023-03-13T00:59:35.871Z,5.10
2023-03-13T01:02:06.819Z,5.10
2023-03-13T01:04:38.002Z,5.10
2023-03-13T01:07:06.178Z,5.20
2023-03-13T01:09:33.899Z,5.20
2023-03-13T01:12:00.761Z,5.20
2023-03-13T01:14:28.011Z,5.20
2023-03-13T01:16:56.459Z,5.20
2023-03-13T01:19:27.412Z,5.20
2023-03-13T01:21:56.697Z,5.20
2023-03-13T01:24:24.796Z,5.20
2023-03-13T01:26:52.960Z,5.20
2023-03-13T01:29:22.414Z,5.00
2023-03-13T01:31:51.961Z,5.00
2023-03-13T01:34:18.864Z,5.00
2023-03-13T01:36:54.189Z,5.00
2023-03-13T01:39:24.340Z,5.10
2023-03-13T01:41:54.767Z,5.00
2023-03-13T01:44:26.034Z,4.90
2023-03-13T01:46:56.849Z,5.00
2023-03-13T01:49:29.039Z,5.10
2023-03-13T01:52:14.599Z,5.10
2023-03-13T01:55:09.563Z,5.30
2023-03-13T01:57:47.924Z,5.40
2023-03-13T02:00:22.775Z,5.40
2023-03-13T02:02:57.428Z,5.40
2023-03-13T02:05:27.783Z,5.50
2023-03-13T02:08:19.365Z,5.40
2023-03-13T02:10:55.357Z,5.50
2023-03-13T02:13:25.067Z,5.40
2023-03-13T02:15:52.633Z,5.40
2023-03-13T02:18:23.237Z,5.40
2023-03-13T02:20:57.218Z,5.20
2023-03-13T02:24:13.581Z,5.20
2023-03-13T02:26:44.100Z,5.00
2023-03-13T02:29:19.275Z,4.90
2023-03-13T02:31:54.343Z,4.70
2023-03-13T02:34:30.528Z,4.50
2023-03-13T02:37:00.247Z,4.50
2023-03-13T02:39:35.640Z,4.50
2023-03-13T02:42:04.595Z,4.40
2023-03-13T02:44:40.822Z,4.30
2023-03-13T02:47:14.194Z,4.30
2023-03-13T02:49:42.048Z,4.30
2023-03-13T02:52:25.054Z,4.30
2023-03-13T02:54:55.632Z,4.20
2023-03-13T02:57:25.589Z,4.20
2023-03-13T02:59:53.751Z,4.10
2023-03-13T03:02:27.359Z,4.10
2023-03-13T03:04:54.605Z,4.10
2023-03-13T03:07:23.034Z,4.10
2023-03-13T03:09:54.070Z,4.00
2023-03-13T03:12:21.513Z,4.10
2023-03-13T03:14:54.661Z,4.10
2023-03-13T03:17:24.305Z,4.10
2023-03-13T03:19:56.058Z,4.10
2023-03-13T03:22:25.001Z,4.20
2023-03-13T03:24:57.012Z,4.10
2023-03-13T03:27:25.077Z,4.10
2023-03-13T03:29:54.338Z,4.10
2023-03-13T03:32:25.196Z,4.10
2023-03-13T03:34:54.828Z,4.20
2023-03-13T03:37:25.264Z,4.20
2023-03-13T03:39:58.288Z,4.10
2023-03-13T03:42:38.295Z,4.30
2023-03-13T03:45:08.875Z,4.30
2023-03-13T03:47:37.588Z,4.30
2023-03-13T03:50:05.380Z,4.20
2023-03-13T03:52:43.285Z,4.30
2023-03-13T03:55:15.100Z,4.20
2023-03-13T03:57:45.807Z,4.30
2023-03-13T04:00:21.372Z,4.30
2023-03-13T04:02:53.428Z,4.30
2023-03-13T04:05:21.380Z,4.30
2023-03-13T04:07:51.473Z,4.30
2023-03-13T04:10:25.372Z,4.30
2023-03-13T04:12:55.838Z,4.30
2023-03-13T04:15:31.878Z,4.30
2023-03-13T04:17:59.387Z,4.30
2023-03-13T04:20:30.952Z,4.30
2023-03-13T04:23:03.957Z,4.30
2023-03-13T04:25:31.333Z,4.30
2023-03-13T04:28:03.319Z,4.30
2023-03-13T04:30:43.773Z,4.40
2023-03-13T04:33:47.355Z,4.40
2023-03-13T04:36:34.084Z,4.30
2023-03-13T04:39:39.782Z,4.40
2023-03-13T04:42:23.458Z,4.40
2023-03-13T04:45:03.519Z,4.50
2023-03-13T04:47:49.419Z,4.50
2023-03-13T04:50:37.180Z,4.50
2023-03-13T04:53:15.384Z,4.50
2023-03-13T04:55:52.731Z,4.50
2023-03-13T04:58:41.948Z,4.50
2023-03-13T05:01:31.598Z,4.50
2023-03-13T05:04:08.341Z,4.70
2023-03-13T05:07:00.859Z,4.50
2023-03-13T05:10:00.272Z,4.40
2023-03-13T05:12:45.097Z,4.40
2023-03-13T05:15:32.724Z,4.60
2023-03-13T05:18:24.152Z,4.50
2023-03-13T05:21:26.971Z,4.40
2023-03-13T05:23:55.739Z,4.60
2023-03-13T05:27:02.961Z,4.60
2023-03-13T05:29:37.148Z,4.60
2023-03-13T05:32:23.337Z,4.70
2023-03-13T05:35:16.173Z,4.70
2023-03-13T05:38:10.828Z,4.70
2023-03-13T05:40:57.697Z,4.70
2023-03-13T05:43:49.214Z,4.70
2023-03-13T05:46:40.447Z,4.70
2023-03-13T05:49:28.335Z,4.70
2023-03-13T05:52:34.908Z,4.80
2023-03-13T05:55:35.744Z,4.80
2023-03-13T05:58:25.201Z,4.80
2023-03-13T06:01:08.981Z,4.80
2023-03-13T06:04:02.798Z,4.90
2023-03-13T06:06:31.824Z,4.90
2023-03-13T06:09:00.499Z,5.00
2023-03-13T06:11:31.245Z,5.00
2023-03-13T06:14:00.432Z,5.20
2023-03-13T06:16:49.124Z,5.10
2023-03-13T06:19:23.395Z,5.10
2023-03-13T06:21:53.740Z,5.20
2023-03-13T06:24:20.864Z,5.20
2023-03-13T06:26:51.388Z,5.30
2023-03-13T06:29:20.939Z,5.30
2023-03-13T06:31:57.164Z,5.40
2023-03-13T06:34:30.040Z,5.40
2023-03-13T06:36:59.329Z,5.50
2023-03-13T06:39:29.170Z,5.50
2023-03-13T06:42:03.463Z,5.50
2023-03-13T06:44:33.167Z,5.50
2023-03-13T06:47:00.115Z,5.50
2023-03-13T06:49:31.988Z,5.60
2023-03-13T06:52:02.653Z,5.60
2023-03-13T06:54:31.204Z,5.60
2023-03-13T06:56:59.491Z,5.60
2023-03-13T06:59:28.101Z,5.80
2023-03-13T07:01:59.734Z,5.80
2023-03-13T07:04:27.154Z,5.90
2023-03-13T07:06:55.119Z,5.90
2023-03-13T07:09:25.394Z,6.00
2023-03-13T07:11:53.479Z,6.00
2023-03-13T07:14:21.217Z,6.00
2023-03-13T07:16:52.327Z,6.10
2023-03-13T07:19:21.588Z,6.20
2023-03-13T07:21:50.196Z,6.20
2023-03-13T07:24:17.767Z,6.30
2023-03-13T07:27:04.664Z,6.20
2023-03-13T07:29:36.764Z,6.30
2023-03-13T07:32:06.858Z,6.40
2023-03-13T07:34:36.595Z,6.40
2023-03-13T07:37:04.920Z,6.50
2023-03-13T07:39:32.148Z,6.40
2023-03-13T07:42:00.623Z,6.50
2023-03-13T07:44:35.038Z,6.50
2023-03-13T07:47:02.326Z,6.60
2023-03-13T07:49:33.994Z,6.80
2023-03-13T07:52:03.904Z,6.90
2023-03-13T07:54:31.724Z,7.00
2023-03-13T07:57:05.569Z,6.90
2023-03-13T07:59:53.262Z,7.00
2023-03-13T08:02:20.465Z,7.10
2023-03-13T08:04:53.244Z,7.10
2023-03-13T08:07:20.445Z,7.20
2023-03-13T08:09:51.129Z,7.30
2023-03-13T08:12:18.914Z,7.40
2023-03-13T08:14:46.367Z,7.50
2023-03-13T08:17:15.393Z,7.50
2023-03-13T08:19:44.010Z,7.50
2023-03-13T08:22:10.975Z,7.60
2023-03-13T08:24:38.316Z,7.60
2023-03-13T08:27:06.700Z,7.70
2023-03-13T08:29:33.594Z,7.70
2023-03-13T08:32:03.538Z,7.80
2023-03-13T08:34:30.390Z,7.80
2023-03-13T08:36:58.480Z,7.90
2023-03-13T08:39:26.145Z,7.90
2023-03-13T08:41:54.234Z,8.00
2023-03-13T08:44:21.630Z,8.10
2023-03-13T08:46:49.619Z,8.10
2023-03-13T08:49:18.026Z,8.10
2023-03-13T08:51:47.860Z,8.30
2023-03-13T08:54:17.674Z,8.30
2023-03-13T08:56:46.705Z,8.40
2023-03-13T08:59:15.821Z,8.50
2023-03-13T09:01:43.523Z,8.40
2023-03-13T09:04:16.565Z,8.40
2023-03-13T09:06:45.007Z,8.40
2023-03-13T09:09:14.566Z,8.30
2023-03-13T09:11:43.928Z,8.40
2023-03-13T09:14:16.356Z,8.50
2023-03-13T09:16:47.870Z,8.60
2023-03-13T09:19:16.753Z,8.80
2023-03-13T09:21:47.268Z,9.00
2023-03-13T09:24:20.182Z,9.20
2023-03-13T09:27:00.684Z,9.60
2023-03-13T09:29:31.757Z,10.00
2023-03-13T09:32:00.136Z,10.40
2023-03-13T09:34:33.158Z,10.60
2023-03-13T09:37:00.207Z,10.90
2023-03-13T09:39:31.849Z,10.90
2023-03-13T09:42:09.752Z,11.00
2023-03-13T09:44:53.790Z,11.30
2023-03-13T09:47:24.094Z,11.30
2023-03-13T09:50:04.765Z,11.30
2023-03-13T09:52:41.257Z,11.30
2023-03-13T09:55:29.831Z,11.30
2023-03-13T09:58:04.441Z,11.30
2023-03-13T10:00:39.693Z,11.40
2023-03-13T10:03:24.482Z,11.30
2023-03-13T10:06:03.475Z,11.30
2023-03-13T10:08:33.519Z,11.40
2023-03-13T10:11:04.981Z,11.50
2023-03-13T10:13:44.212Z,11.60
2023-03-13T10:16:37.778Z,11.70
2023-03-13T10:19:36.696Z,11.80
2023-03-13T10:22:22.758Z,12.10
2023-03-13T10:25:21.477Z,12.40
2023-03-13T10:27:58.255Z,12.40
2023-03-13T10:30:31.209Z,12.40
2023-03-13T10:33:01.503Z,12.40
2023-03-13T10:35:35.626Z,12.30
2023-03-13T10:38:20.076Z,12.20
2023-03-13T10:41:10.265Z,12.20
2023-03-13T10:43:55.952Z,12.10
2023-03-13T10:46:36.227Z,12.00
2023-03-13T10:49:14.270Z,11.90
2023-03-13T10:51:50.065Z,12.00
2023-03-13T10:54:30.024Z,12.00
2023-03-13T10:57:17.905Z,12.10
2023-03-13T10:59:53.554Z,12.10
2023-03-13T11:02:29.071Z,12.00
2023-03-13T11:05:00.012Z,12.00
2023-03-13T11:07:40.516Z,12.00
2023-03-13T11:10:19.808Z,12.00
2023-03-13T11:12:49.047Z,12.30
2023-03-13T11:15:31.464Z,12.20
2023-03-13T11:18:29.587Z,12.10
2023-03-13T11:21:15.681Z,12.30
2023-03-13T11:23:54.747Z,12.30
2023-03-13T11:27:03.834Z,12.30
2023-03-13T11:29:47.579Z,12.10
2023-03-13T11:32:32.878Z,11.80
2023-03-13T11:35:06.020Z,11.70
2023-03-13T11:37:37.177Z,11.40
2023-03-13T11:40:33.871Z,11.30
2023-03-13T11:43:25.075Z,11.20
2023-03-13T11:46:15.752Z,11.30
2023-03-13T11:49:07.575Z,11.20
2023-03-13T11:52:04.604Z,11.10
2023-03-13T11:55:17.873Z,11.20
2023-03-13T11:57:55.760Z,11.30
2023-03-13T12:00:43.766Z,11.50
2023-03-13T12:03:30.964Z,11.60
2023-03-13T12:06:03.248Z,11.40
2023-03-13T12:08:48.874Z,11.50
2023-03-13T12:11:30.112Z,11.50
2023-03-13T12:14:11.806Z,11.40
2023-03-13T12:16:58.276Z,11.40
2023-03-13T12:19:48.169Z,11.30
2023-03-13T12:22:21.915Z,11.10
2023-03-13T12:25:29.595Z,10.90
2023-03-13T12:28:07.776Z,10.80
2023-03-13T12:31:00.702Z,10.60
2023-03-13T12:33:38.253Z,10.50
2023-03-13T12:36:13.252Z,10.50
2023-03-13T12:38:44.322Z,10.60
2023-03-13T12:41:28.503Z,10.60
2023-03-13T12:44:09.099Z,10.70
2023-03-13T12:46:52.109Z,10.80
2023-03-13T12:49:53.334Z,10.80
2023-03-13T12:52:50.196Z,10.80
2023-03-13T12:55:31.726Z,10.70
2023-03-13T12:58:30.683Z,10.60
2023-03-13T13:01:06.068Z,10.60
2023-03-13T13:03:44.782Z,10.50
2023-03-13T13:06:16.190Z,10.60
2023-03-13T13:08:46.900Z,10.70
2023-03-13T13:11:44.773Z,10.70
2023-03-13T13:14:20.876Z,10.80
2023-03-13T13:17:00.125Z,11.00
2023-03-13T13:19:28.714Z,11.10
2023-03-13T13:22:34.275Z,11.30
2023-03-13T13:25:02.243Z,11.40
2023-03-13T13:27:49.306Z,11.30
2023-03-13T13:30:19.305Z,11.30
2023-03-13T13:32:51.457Z,11.30
2023-03-13T13:35:37.016Z,11.30
2023-03-13T13:38:19.928Z,11.30
2023-03-13T13:41:16.064Z,11.40
2023-03-13T13:43:47.474Z,11.30
2023-03-13T13:46:25.165Z,11.50
2023-03-13T13:49:09.576Z,11.90
2023-03-13T13:51:46.464Z,12.00
2023-03-13T13:54:56.321Z,12.00
2023-03-13T13:57:25.914Z,12.10
2023-03-13T14:00:19.708Z,12.20
2023-03-13T14:03:10.630Z,12.40
2023-03-13T14:05:47.044Z,12.70
2023-03-13T14:08:41.915Z,12.80
2023-03-13T14:11:35.460Z,12.80
2023-03-13T14:14:24.108Z,12.50
2023-03-13T14:16:56.390Z,12.50
2023-03-13T14:19:37.629Z,12.50
2023-03-13T14:22:10.664Z,12.50
2023-03-13T14:24:39.933Z,12.40
2023-03-13T14:27:22.059Z,12.30
2023-03-13T14:30:07.434Z,12.30
2023-03-13T14:32:35.447Z,12.10
2023-03-13T14:35:06.405Z,11.80
2023-03-13T14:37:39.740Z,11.80
2023-03-13T14:40:24.276Z,11.60
2023-03-13T14:43:01.302Z,11.50
2023-03-13T14:45:37.696Z,11.30
2023-03-13T14:48:19.621Z,11.20
2023-03-13T14:50:50.612Z,11.10
2023-03-13T14:53:21.654Z,10.80
2023-03-13T14:56:20.452Z,10.60
2023-03-13T14:58:49.976Z,10.40
2023-03-13T15:01:32.705Z,10.20
2023-03-13T15:04:00.865Z,10.10
2023-03-13T15:06:28.609Z,9.90
2023-03-13T15:09:20.452Z,9.80
2023-03-13T15:11:57.556Z,9.60
2023-03-13T15:14:35.990Z,9.60
2023-03-13T15:17:04.453Z,9.50
2023-03-13T15:19:32.685Z,9.50
2023-03-13T15:22:02.551Z,9.50
2023-03-13T15:24:31.716Z,9.40
2023-03-13T15:26:58.801Z,9.40
2023-03-13T15:29:32.565Z,9.40
2023-03-13T15:32:04.806Z,9.40
2023-03-13T15:34:34.781Z,9.40
2023-03-13T15:37:04.300Z,9.30
2023-03-13T15:39:31.845Z,9.20
2023-03-13T15:42:00.956Z,9.20
2023-03-13T15:44:29.336Z,9.10
2023-03-13T15:46:56.815Z,9.20
2023-03-13T15:49:26.926Z,9.00
2023-03-13T15:51:57.769Z,9.00
2023-03-13T15:54:34.154Z,8.80
2023-03-13T15:57:05.662Z,8.80
2023-03-13T15:59:39.656Z,8.80
2023-03-13T16:02:18.017Z,8.80
2023-03-13T16:04:45.983Z,8.90
2023-03-13T16:07:21.278Z,8.80
2023-03-13T16:09:49.051Z,8.90
2023-03-13T16:12:19.986Z,8.90
2023-03-13T16:14:47.975Z,8.90
2023-03-13T16:17:17.303Z,8.90
2023-03-13T16:19:47.023Z,8.90
2023-03-13T16:22:15.433Z,9.00
2023-03-13T16:24:43.464Z,9.00
2023-03-13T16:27:16.804Z,9.10
2023-03-13T16:29:47.812Z,9.20
2023-03-13T16:32:24.635Z,9.20
2023-03-13T16:34:52.282Z,9.30
2023-03-13T16:37:23.458Z,9.30
2023-03-13T16:39:54.216Z,9.30
2023-03-13T16:42:21.534Z,9.30
2023-03-13T16:44:48.375Z,9.20
2023-03-13T16:47:28.767Z,9.30
2023-03-13T16:49:58.100Z,9.20
2023-03-13T16:52:26.914Z,9.10
2023-03-13T16:54:54.104Z,9.10
2023-03-13T16:57:26.869Z,9.10
2023-03-13T16:59:53.734Z,9.00
2023-03-13T17:02:24.331Z,9.10
2023-03-13T17:04:54.332Z,9.00
2023-03-13T17:07:29.775Z,9.00
2023-03-13T17:09:57.818Z,9.00
2023-03-13T17:12:25.830Z,9.10
2023-03-13T17:14:52.615Z,9.10
2023-03-13T17:17:24.817Z,9.10
2023-03-13T17:19:52.399Z,8.90
2023-03-13T17:22:20.069Z,8.90
2023-03-13T17:24:48.664Z,8.90
2023-03-13T17:27:23.041Z,8.80
2023-03-13T17:29:56.662Z,8.80
2023-03-13T17:32:46.690Z,8.80
2023-03-13T17:35:25.712Z,8.90
2023-03-13T17:37:53.538Z,8.70
2023-03-13T17:40:37.400Z,8.80
2023-03-13T17:43:19.796Z,8.80
2023-03-13T17:46:18.047Z,8.60
2023-03-13T17:48:50.098Z,8.60
2023-03-13T17:51:26.182Z,8.60
2023-03-13T17:53:59.521Z,8.50
2023-03-13T17:56:30.544Z,8.50
2023-03-13T17:58:59.769Z,8.40
2023-03-13T18:01:31.020Z,8.40
2023-03-13T18:04:00.837Z,8.30
2023-03-13T18:06:30.250Z,8.30
2023-03-13T18:09:05.608Z,8.20
2023-03-13T18:11:41.911Z,8.10
2023-03-13T18:14:10.170Z,8.10
2023-03-13T18:16:45.066Z,8.10
2023-03-13T18:19:22.691Z,8.10
2023-03-13T18:21:56.939Z,8.00
2023-03-13T18:24:24.652Z,8.10
2023-03-13T18:26:53.246Z,8.10
2023-03-13T18:29:29.195Z,8.10
2023-03-13T18:31:59.764Z,8.20
2023-03-13T18:34:29.668Z,8.30
2023-03-13T18:37:03.859Z,8.30
2023-03-13T18:39:32.791Z,8.30
2023-03-13T18:42:02.228Z,8.40
2023-03-13T18:44:29.847Z,8.40
2023-03-13T18:46:57.031Z,8.40
2023-03-13T18:49:25.119Z,8.20
2023-03-13T18:51:58.782Z,8.40
2023-03-13T18:54:27.317Z,8.20
2023-03-13T18:56:54.506Z,8.00
2023-03-13T18:59:23.313Z,8.00
2023-03-13T19:01:51.976Z,8.00
2023-03-13T19:04:19.782Z,8.00
2023-03-13T19:06:51.974Z,8.00
2023-03-13T19:09:43.500Z,8.10
2023-03-13T19:12:13.866Z,8.00
2023-03-13T19:14:41.205Z,8.10
2023-03-13T19:17:29.653Z,8.20
2023-03-13T19:19:58.221Z,8.30
2023-03-13T19:22:25.837Z,8.30
2023-03-13T19:24:54.159Z,8.40
2023-03-13T19:27:23.695Z,8.40
2023-03-13T19:29:51.815Z,8.30
2023-03-13T19:32:20.375Z,8.30
2023-03-13T19:34:48.881Z,8.30
2023-03-13T19:37:20.785Z,8.30
2023-03-13T19:39:51.345Z,8.30
2023-03-13T19:42:18.769Z,8.30
2023-03-13T19:44:52.504Z,8.30
2023-03-13T19:47:21.651Z,8.30
2023-03-13T19:49:58.083Z,8.30
2023-03-13T19:52:30.169Z,8.20
2023-03-13T19:55:05.427Z,8.20
2023-03-13T19:57:34.003Z,8.30
2023-03-13T20:00:05.622Z,8.20
2023-03-13T20:02:41.878Z,8.20
2023-03-13T20:05:10.400Z,8.10
2023-03-13T20:07:37.845Z,8.00
2023-03-13T20:10:06.362Z,7.90
2023-03-13T20:12:36.126Z,7.70
2023-03-13T20:15:08.092Z,7.80
2023-03-13T20:17:36.116Z,7.70
2023-03-13T20:20:07.544Z,7.70
2023-03-13T20:22:45.647Z,7.70
2023-03-13T20:25:16.641Z,7.70
2023-03-13T20:27:45.693Z,7.70
2023-03-13T20:30:16.320Z,7.70
2023-03-13T20:32:57.090Z,7.60
2023-03-13T20:35:29.963Z,7.60
2023-03-13T20:38:00.014Z,7.80
2023-03-13T20:40:30.319Z,7.70
2023-03-13T20:42:59.706Z,7.60
2023-03-13T20:45:32.925Z,7.80
2023-03-13T20:48:02.774Z,7.80
2023-03-13T20:50:30.152Z,7.60
2023-03-13T20:52:57.447Z,7.60
2023-03-13T20:55:25.760Z,7.50
2023-03-13T20:57:54.572Z,7.50
2023-03-13T21:00:22.321Z,7.30
2023-03-13T21:02:51.003Z,7.20
2023-03-13T21:05:25.782Z,7.10
2023-03-13T21:07:55.131Z,7.00
2023-03-13T21:10:24.622Z,7.00
2023-03-13T21:12:52.404Z,6.90
2023-03-13T21:15:20.367Z,6.80
2023-03-13T21:17:47.507Z,6.80
2023-03-13T21:20:14.999Z,6.60
2023-03-13T21:22:43.133Z,6.70
2023-03-13T21:25:14.915Z,6.50
2023-03-13T21:27:44.072Z,6.60
2023-03-13T21:30:14.205Z,6.40
2023-03-13T21:32:41.823Z,6.40
2023-03-13T21:35:09.670Z,6.40
2023-03-13T21:37:37.466Z,6.40
2023-03-13T21:40:06.392Z,6.30
2023-03-13T21:42:38.024Z,6.30
2023-03-13T21:45:09.108Z,6.20
2023-03-13T21:47:37.329Z,6.20
2023-03-13T21:50:09.974Z,6.30
2023-03-13T21:52:43.525Z,6.30
2023-03-13T21:55:15.195Z,6.30
2023-03-13T21:57:47.731Z,6.40
2023-03-13T22:00:17.478Z,6.30
2023-03-13T22:02:46.246Z,6.20
2023-03-13T22:05:15.268Z,6.20
2023-03-13T22:07:46.228Z,6.30
2023-03-13T22:10:18.661Z,6.30
2023-03-13T22:12:46.583Z,6.30
2023-03-13T22:15:17.505Z,6.40
2023-03-13T22:17:45.794Z,6.30
2023-03-13T22:20:15.293Z,6.30
2023-03-13T22:22:45.545Z,6.30
2023-03-13T22:25:17.468Z,6.30
2023-03-13T22:27:46.803Z,6.20
2023-03-13T22:30:16.939Z,6.20
2023-03-13T22:32:47.183Z,6.20
2023-03-13T22:35:15.766Z,6.20
2023-03-13T22:37:46.411Z,6.10
2023-03-13T22:40:16.301Z,6.10
2023-03-13T22:42:45.253Z,6.10
2023-03-13T22:45:12.659Z,6.10
2023-03-13T22:47:40.526Z,6.00
2023-03-13T22:50:12.537Z,6.00
2023-03-13T22:52:42.074Z,5.90
2023-03-13T22:55:09.566Z,6.00
2023-03-13T22:57:37.715Z,6.00
2023-03-13T23:00:07.076Z,6.00
2023-03-13T23:02:37.200Z,5.90
2023-03-13T23:05:05.480Z,5.90
2023-03-13T23:07:38.915Z,6.00
2023-03-13T23:10:08.796Z,6.00
2023-03-13T23:12:36.056Z,6.00
2023-03-13T23:15:07.855Z,6.00
2023-03-13T23:17:36.881Z,5.90
2023-03-13T23:20:15.183Z,5.90
2023-03-13T23:22:48.874Z,5.90
2023-03-13T23:25:18.775Z,5.90
2023-03-13T23:27:48.649Z,5.80
2023-03-13T23:30:21.943Z,5.80
2023-03-13T23:32:51.246Z,5.90
2023-03-13T23:35:18.541Z,6.00
2023-03-13T23:37:49.939Z,5.90
2023-03-13T23:40:21.506Z,5.90
2023-03-13T23:42:53.119Z,6.00
2023-03-13T23:45:21.586Z,6.00
2023-03-13T23:47:49.226Z,6.00
2023-03-13T23:50:17.253Z,6.10
2023-03-13T23:52:48.099Z,6.10
2023-03-13T23:55:16.569Z,6.30
2023-03-13T23:57:43.681Z,6.20
